createdAt,value
2018-07-24T00:00:55.681Z,18.41
2018-07-24T00:03:25.056Z,18.40
2018-07-24T00:05:54.130Z,18.36
2018-07-24T00:08:23.186Z,18.32
2018-07-24T00:10:52.503Z,18.24
2018-07-24T00:13:21.558Z,18.20
2018-07-24T00:15:51.406Z,18.18
2018-07-24T00:18:20.548Z,18.14
2018-07-24T00:20:49.624Z,18.14
2018-07-24T00:23:18.774Z,18.12
2018-07-24T00:25:48.232Z,18.10
2018-07-24T00:28:17.842Z,18.09
2018-07-24T00:30:47.656Z,18.08
2018-07-24T00:33:17.477Z,18.06
2018-07-24T00:35:47.520Z,18.04
2018-07-24T00:38:17.515Z,18.01
2018-07-24T00:40:47.726Z,17.98
2018-07-24T00:43:17.622Z,17.95
2018-07-24T00:45:47.666Z,17.94
2018-07-24T00:48:17.902Z,17.92
2018-07-24T00:50:47.566Z,17.92
2018-07-24T00:53:17.606Z,17.91
2018-07-24T00:55:47.698Z,17.90
2018-07-24T00:58:17.898Z,17.87
2018-07-24T01:00:47.811Z,17.86
2018-07-24T01:03:17.992Z,17.84
2018-07-24T01:05:48.158Z,17.81
2018-07-24T01:08:18.051Z,17.80
2018-07-24T01:10:48.267Z,17.77
2018-07-24T01:13:18.212Z,17.76
2018-07-24T01:15:48.032Z,17.73
2018-07-24T01:18:18.029Z,17.71
2018-07-24T01:20:48.443Z,17.69
2018-07-24T01:23:17.966Z,17.68
2018-07-24T01:25:48.416Z,17.64
2018-07-24T01:28:18.183Z,17.63
2018-07-24T01:30:48.165Z,17.62
2018-07-24T01:33:18.459Z,17.61
2018-07-24T01:35:48.276Z,17.57
2018-07-24T01:38:18.086Z,17.54
2018-07-24T01:40:48.206Z,17.51
2018-07-24T01:43:18.120Z,17.50
2018-07-24T01:45:48.653Z,17.47
2018-07-24T01:48:18.213Z,17.40
2018-07-24T01:50:48.329Z,17.36
2018-07-24T01:53:18.257Z,17.34
2018-07-24T01:55:48.923Z,17.27
2018-07-24T01:58:18.787Z,17.17
2018-07-24T02:00:48.403Z,17.14
2018-07-24T02:03:18.532Z,17.11
2018-07-24T02:05:49.385Z,17.13
2018-07-24T02:08:18.491Z,17.11
2018-07-24T02:10:47.545Z,17.08
2018-07-24T02:13:16.691Z,17.05
2018-07-24T02:15:46.085Z,17.07
2018-07-24T02:18:15.180Z,17.06
2018-07-24T02:20:44.268Z,17.04
2018-07-24T02:23:13.525Z,17.03
2018-07-24T02:25:42.974Z,16.97
2018-07-24T02:28:12.097Z,16.93
2018-07-24T02:30:41.116Z,16.92
2018-07-24T02:33:10.284Z,16.91
2018-07-24T02:35:39.334Z,16.89
2018-07-24T02:38:08.470Z,16.87
2018-07-24T02:40:37.548Z,16.84
2018-07-24T02:43:07.054Z,16.83
2018-07-24T02:45:36.591Z,16.85
2018-07-24T02:48:06.923Z,16.85
2018-07-24T02:50:36.013Z,16.82
2018-07-24T02:53:05.518Z,16.80
2018-07-24T02:55:35.010Z,16.79
2018-07-24T02:58:04.537Z,16.77
2018-07-24T03:00:33.614Z,16.73
2018-07-24T03:03:02.719Z,16.67
2018-07-24T03:05:31.788Z,16.68
2018-07-24T03:08:00.936Z,16.67
2018-07-24T03:10:30.446Z,16.62
2018-07-24T03:12:59.530Z,16.56
2018-07-24T03:15:28.590Z,16.55
2018-07-24T03:17:57.721Z,16.54
2018-07-24T03:20:26.845Z,16.54
2018-07-24T03:22:55.938Z,16.54
2018-07-24T03:25:25.018Z,16.51
2018-07-24T03:27:54.510Z,16.46
2018-07-24T03:30:24.007Z,16.44
2018-07-24T03:32:53.120Z,16.43
2018-07-24T03:35:22.170Z,16.44
2018-07-24T03:37:51.284Z,16.44
2018-07-24T03:40:20.569Z,16.43
2018-07-24T03:42:49.772Z,16.44
2018-07-24T03:45:19.448Z,16.43
2018-07-24T04:07:08.902Z,16.42
2018-07-24T04:09:39.196Z,16.31
2018-07-24T04:12:09.319Z,16.30
2018-07-24T04:14:38.677Z,16.28
2018-07-24T04:17:07.841Z,16.29
2018-07-24T04:19:37.185Z,16.30
2018-07-24T04:22:06.406Z,16.29
2018-07-24T04:24:35.922Z,16.31
2018-07-24T04:27:05.413Z,16.32
2018-07-24T04:29:34.831Z,16.35
2018-07-24T04:32:03.909Z,16.35
2018-07-24T04:34:33.102Z,16.37
2018-07-24T04:37:02.582Z,16.40
2018-07-24T04:39:31.751Z,16.42
2018-07-24T04:42:01.215Z,16.45
2018-07-24T04:44:30.326Z,16.49
2018-07-24T04:47:00.077Z,16.51
2018-07-24T04:49:29.181Z,16.57
2018-07-24T04:51:58.240Z,16.61
2018-07-24T04:54:27.507Z,16.61
2018-07-24T04:56:56.632Z,16.58
2018-07-24T04:59:26.102Z,16.59
2018-07-24T05:01:55.208Z,16.65
2018-07-24T05:04:24.307Z,16.72
2018-07-24T05:06:53.362Z,16.67
2018-07-24T05:09:29.074Z,16.77
2018-07-24T05:11:58.447Z,16.78
2018-07-24T05:14:27.655Z,16.77
2018-07-24T05:16:57.328Z,16.84
2018-07-24T05:19:27.283Z,16.95
2018-07-24T05:21:56.576Z,17.04
2018-07-24T05:24:26.114Z,17.12
2018-07-24T05:26:55.237Z,17.12
2018-07-24T05:29:24.288Z,17.19
2018-07-24T05:31:53.372Z,17.26
2018-07-24T05:34:22.668Z,17.31
2018-07-24T05:36:51.958Z,17.38
2018-07-24T05:39:22.347Z,17.44
2018-07-24T05:41:52.226Z,17.45
2018-07-24T05:44:22.090Z,17.46
2018-07-24T05:46:52.406Z,17.49
2018-07-24T05:49:22.055Z,17.55
2018-07-24T05:51:52.314Z,17.62
2018-07-24T05:54:22.087Z,17.69
2018-07-24T05:56:52.543Z,17.74
2018-07-24T05:59:22.186Z,17.80
2018-07-24T06:01:52.412Z,17.88
2018-07-24T06:04:22.299Z,17.95
2018-07-24T06:06:52.365Z,18.02
2018-07-24T06:09:22.581Z,18.07
2018-07-24T06:11:52.360Z,18.14
2018-07-24T06:14:22.809Z,18.19
2018-07-24T06:16:52.538Z,18.24
2018-07-24T06:19:22.691Z,18.29
2018-07-24T06:21:52.604Z,18.35
2018-07-24T06:24:22.870Z,18.40
2018-07-24T06:26:52.391Z,18.45
2018-07-24T06:29:23.616Z,18.56
2018-07-24T06:31:52.994Z,18.65
2018-07-24T06:34:22.831Z,18.69
2018-07-24T06:36:52.544Z,18.73
2018-07-24T06:39:22.941Z,18.78
2018-07-24T06:41:52.501Z,18.86
2018-07-24T06:44:23.100Z,18.92
2018-07-24T06:46:52.576Z,18.96
2018-07-24T06:49:22.496Z,18.98
2018-07-24T06:51:52.595Z,19.06
2018-07-24T06:54:22.703Z,19.11
2018-07-24T06:56:52.654Z,19.23
2018-07-24T06:59:22.979Z,19.34
2018-07-24T07:01:52.681Z,19.46
2018-07-24T07:04:22.747Z,19.51
2018-07-24T07:06:53.074Z,19.56
2018-07-24T07:09:22.979Z,19.66
2018-07-24T07:31:12.342Z,19.71
2018-07-24T07:33:41.622Z,20.30
2018-07-24T07:36:11.188Z,20.41
2018-07-24T07:38:40.268Z,20.48
2018-07-24T07:41:09.643Z,20.54
2018-07-24T07:43:38.808Z,20.60
2018-07-24T07:46:08.240Z,20.68
2018-07-24T07:48:37.423Z,20.75
2018-07-24T07:51:06.541Z,20.83
2018-07-24T07:53:35.612Z,20.93
2018-07-24T07:56:05.569Z,21.01
2018-07-24T07:58:35.021Z,21.11
2018-07-24T08:01:04.548Z,21.16
2018-07-24T08:03:33.627Z,21.26
2018-07-24T08:06:03.063Z,21.35
2018-07-24T08:08:32.167Z,21.42
2018-07-24T08:11:01.228Z,21.54
2018-07-24T08:13:30.498Z,21.64
2018-07-24T08:15:59.877Z,21.69
2018-07-24T08:18:29.079Z,21.74
2018-07-24T08:20:58.172Z,21.80
2018-07-24T08:23:27.874Z,21.86
2018-07-24T08:25:57.385Z,21.96
2018-07-24T08:28:26.463Z,21.99
2018-07-24T08:30:56.767Z,22.03
2018-07-24T08:33:26.027Z,22.21
2018-07-24T08:35:55.600Z,22.33
2018-07-24T08:38:24.666Z,22.45
2018-07-24T08:40:54.325Z,22.60
2018-07-24T08:43:24.437Z,22.71
2018-07-24T08:45:54.830Z,22.84
2018-07-24T08:48:24.650Z,22.95
2018-07-24T08:50:54.681Z,23.01
2018-07-24T08:53:24.911Z,23.01
2018-07-24T08:55:54.528Z,22.99
2018-07-24T08:58:24.813Z,23.05
2018-07-24T09:00:54.736Z,23.11
2018-07-24T09:03:24.733Z,23.24
2018-07-24T09:05:54.894Z,23.24
2018-07-24T09:08:24.541Z,23.34
2018-07-24T09:10:54.765Z,23.42
2018-07-24T09:13:24.776Z,23.45
2018-07-24T09:15:54.959Z,23.48
2018-07-24T09:18:24.848Z,23.51
2018-07-24T09:20:54.765Z,23.60
2018-07-24T09:23:24.867Z,23.73
2018-07-24T09:25:54.790Z,23.94
2018-07-24T09:28:25.633Z,24.04
2018-07-24T09:30:54.704Z,24.05
2018-07-24T09:33:23.812Z,24.07
2018-07-24T09:35:53.005Z,24.22
2018-07-24T09:38:22.160Z,24.27
2018-07-24T09:40:51.239Z,24.30
2018-07-24T09:43:20.381Z,24.34
2018-07-24T09:45:49.584Z,24.37
2018-07-24T09:48:18.648Z,24.50
2018-07-24T09:50:47.754Z,24.64
2018-07-24T09:53:16.800Z,24.78
2018-07-24T09:55:45.918Z,24.97
2018-07-24T09:58:15.039Z,24.98
2018-07-24T10:00:49.557Z,24.99
2018-07-24T10:03:18.645Z,25.08
2018-07-24T10:05:47.842Z,25.06
2018-07-24T10:08:17.006Z,25.11
2018-07-24T10:10:46.141Z,25.20
2018-07-24T10:13:15.266Z,25.35
2018-07-24T10:15:44.286Z,25.39
2018-07-24T10:18:14.373Z,25.41
2018-07-24T10:20:43.494Z,25.49
2018-07-24T10:23:12.576Z,25.66
2018-07-24T10:25:41.690Z,25.77
2018-07-24T10:28:10.768Z,25.82
2018-07-24T10:30:39.818Z,25.89
2018-07-24T10:33:08.934Z,25.90
2018-07-24T10:35:37.995Z,25.97
2018-07-24T10:38:07.136Z,25.94
2018-07-24T10:40:36.184Z,26.08
2018-07-24T10:43:05.323Z,26.16
2018-07-24T10:45:34.410Z,26.25
2018-07-24T10:48:03.496Z,26.17
2018-07-24T10:50:32.584Z,26.12
2018-07-24T10:53:01.785Z,26.14
2018-07-24T10:55:30.882Z,26.22
2018-07-24T10:58:00.057Z,26.29
2018-07-24T11:00:29.219Z,26.24
2018-07-24T11:02:58.342Z,26.00
2018-07-24T11:05:27.438Z,26.04
2018-07-24T11:07:56.567Z,26.22
2018-07-24T11:10:25.623Z,26.36
2018-07-24T11:12:55.784Z,26.56
2018-07-24T11:15:25.659Z,26.72
2018-07-24T11:17:55.828Z,26.75
2018-07-24T11:20:25.757Z,26.76
2018-07-24T11:22:55.949Z,26.88
2018-07-24T11:25:25.768Z,26.98
2018-07-24T11:27:55.834Z,27.05
2018-07-24T11:30:25.798Z,27.10
2018-07-24T11:32:55.958Z,27.20
2018-07-24T11:35:25.901Z,27.40
2018-07-24T11:37:55.793Z,27.42
2018-07-24T11:40:25.893Z,27.11
2018-07-24T11:42:55.966Z,26.92
2018-07-24T11:45:25.906Z,27.02
2018-07-24T11:47:56.174Z,27.26
2018-07-24T11:50:26.163Z,27.50
2018-07-24T11:52:56.050Z,27.69
2018-07-24T11:55:26.001Z,27.78
2018-07-24T11:57:56.102Z,27.89
2018-07-24T12:00:26.039Z,27.92
2018-07-24T12:02:56.403Z,27.94
2018-07-24T12:05:26.015Z,27.66
2018-07-24T12:07:56.043Z,27.73
2018-07-24T12:10:25.118Z,27.99
2018-07-24T12:12:54.184Z,28.05
2018-07-24T12:15:23.279Z,28.09
2018-07-24T12:17:52.327Z,27.96
2018-07-24T12:20:21.494Z,28.16
2018-07-24T12:22:50.697Z,28.37
2018-07-24T12:25:19.793Z,28.48
2018-07-24T12:27:48.944Z,28.49
2018-07-24T12:30:18.010Z,28.58
2018-07-24T12:32:47.069Z,28.65
2018-07-24T12:35:16.127Z,28.68
2018-07-24T12:37:45.265Z,28.78
2018-07-24T12:40:14.330Z,28.85
2018-07-24T12:42:43.415Z,28.99
2018-07-24T12:45:12.546Z,29.06
2018-07-24T12:47:41.792Z,29.10
2018-07-24T12:50:10.979Z,29.20
2018-07-24T12:52:40.062Z,29.37
2018-07-24T13:08:03.625Z,29.42
2018-07-24T13:10:32.889Z,29.61
2018-07-24T13:13:02.243Z,29.62
2018-07-24T13:15:32.744Z,29.34
2018-07-24T13:18:02.274Z,28.93
2018-07-24T13:20:31.309Z,28.62
2018-07-24T13:23:00.736Z,28.43
2018-07-24T13:25:29.880Z,28.24
2018-07-24T13:27:58.991Z,28.08
2018-07-24T13:30:28.124Z,28.07
2018-07-24T13:32:57.495Z,28.16
2018-07-24T13:35:26.995Z,28.46
2018-07-24T13:37:57.470Z,28.78
2018-07-24T13:40:27.257Z,29.13
2018-07-24T13:42:57.248Z,29.33
2018-07-24T13:45:27.543Z,29.56
2018-07-24T13:47:57.129Z,29.64
2018-07-24T13:50:27.133Z,29.82
2018-07-24T13:52:57.133Z,29.96
2018-07-24T13:55:27.221Z,30.13
2018-07-24T13:57:57.576Z,30.32
2018-07-24T14:00:27.428Z,30.45
2018-07-24T14:02:57.446Z,30.37
2018-07-24T14:05:27.122Z,30.43
2018-07-24T14:07:57.255Z,30.54
2018-07-24T14:10:27.178Z,30.63
2018-07-24T14:12:57.310Z,30.98
2018-07-24T14:15:27.424Z,31.37
2018-07-24T14:17:57.335Z,31.64
2018-07-24T14:20:27.473Z,31.75
2018-07-24T14:22:57.379Z,31.93
2018-07-24T14:25:58.155Z,32.20
2018-07-24T14:28:27.327Z,32.81
2018-07-24T14:30:57.330Z,32.84
2018-07-24T14:33:26.443Z,32.87
2018-07-24T14:35:55.580Z,33.29
2018-07-24T14:38:24.665Z,33.75
2018-07-24T14:40:53.745Z,33.83
2018-07-24T14:43:22.861Z,34.03
2018-07-24T14:45:52.015Z,34.30
2018-07-24T14:48:21.047Z,33.82
2018-07-24T14:50:50.149Z,33.79
2018-07-24T14:53:19.237Z,33.67
2018-07-24T14:55:48.319Z,33.94
2018-07-24T14:58:17.428Z,34.10
2018-07-24T15:00:46.507Z,33.98
2018-07-24T15:03:15.682Z,33.90
2018-07-24T15:05:44.740Z,34.16
2018-07-24T15:08:13.874Z,34.37
2018-07-24T15:10:42.973Z,34.73
2018-07-24T15:13:12.199Z,34.92
2018-07-24T15:15:41.270Z,34.80
2018-07-24T15:18:10.335Z,34.71
2018-07-24T15:20:39.422Z,34.48
2018-07-24T15:23:08.481Z,34.65
2018-07-24T15:25:37.723Z,34.58
2018-07-24T15:28:06.854Z,34.52
2018-07-24T15:30:35.982Z,34.82
2018-07-24T15:33:05.157Z,34.75
2018-07-24T15:35:34.277Z,34.66
2018-07-24T15:38:03.389Z,34.39
2018-07-24T15:40:32.460Z,33.98
2018-07-24T15:43:01.590Z,34.05
2018-07-24T15:45:30.693Z,33.79
2018-07-24T15:47:59.769Z,33.77
2018-07-24T15:50:28.988Z,33.93
2018-07-24T15:52:58.279Z,34.17
2018-07-24T15:55:28.221Z,34.19
2018-07-24T15:57:58.306Z,33.92
2018-07-24T16:00:28.143Z,33.86
2018-07-24T16:02:57.215Z,33.98
2018-07-24T16:05:26.318Z,34.08
2018-07-24T16:07:55.409Z,33.86
2018-07-24T16:10:24.527Z,33.61
2018-07-24T16:12:53.569Z,33.45
2018-07-24T16:15:22.704Z,33.44
2018-07-24T16:17:51.799Z,33.23
2018-07-24T16:20:20.887Z,33.21
2018-07-24T16:22:49.973Z,33.09
2018-07-24T16:25:19.036Z,32.97
2018-07-24T16:27:48.231Z,32.76
2018-07-24T16:30:17.382Z,32.53
2018-07-24T16:32:46.673Z,32.08
2018-07-24T16:35:15.777Z,31.80
2018-07-24T16:37:44.873Z,31.48
2018-07-24T16:40:13.962Z,31.27
2018-07-24T16:42:43.050Z,31.07
2018-07-24T16:45:12.132Z,30.76
2018-07-24T16:47:41.212Z,30.51
2018-07-24T16:50:10.333Z,30.22
2018-07-24T16:52:39.427Z,30.03
2018-07-24T16:55:08.569Z,29.88
2018-07-24T16:57:37.642Z,29.62
2018-07-24T17:00:06.782Z,29.55
2018-07-24T17:02:35.874Z,29.52
2018-07-24T17:05:04.987Z,29.45
2018-07-24T17:07:34.033Z,29.32
2018-07-24T17:10:03.142Z,29.15
2018-07-24T17:12:32.337Z,28.97
2018-07-24T17:15:01.404Z,28.82
2018-07-24T17:17:30.494Z,28.69
2018-07-24T17:20:00.032Z,28.65
2018-07-24T17:22:29.964Z,28.57
2018-07-24T17:25:00.008Z,28.47
2018-07-24T17:27:29.998Z,28.42
2018-07-24T17:30:00.028Z,28.42
2018-07-24T17:32:30.260Z,28.41
2018-07-24T17:35:00.628Z,28.37
2018-07-24T17:37:30.435Z,28.29
2018-07-24T17:40:00.515Z,28.18
2018-07-24T17:42:29.951Z,28.08
2018-07-24T17:44:59.769Z,28.00
2018-07-24T17:47:28.959Z,27.87
2018-07-24T17:49:58.091Z,27.78
2018-07-24T17:52:27.479Z,27.73
2018-07-24T17:54:56.664Z,27.69
2018-07-24T17:57:26.322Z,27.61
2018-07-24T17:59:55.575Z,27.50
2018-07-24T18:02:24.633Z,27.42
2018-07-24T18:04:53.807Z,27.35
2018-07-24T18:07:22.956Z,27.29
2018-07-24T18:09:51.984Z,27.22
2018-07-24T18:12:21.091Z,27.13
2018-07-24T18:14:50.309Z,27.03
2018-07-24T18:17:19.473Z,26.94
2018-07-24T18:19:48.640Z,26.86
2018-07-24T18:22:17.755Z,26.80
2018-07-24T18:24:47.075Z,26.71
2018-07-24T18:27:16.430Z,26.64
2018-07-24T18:29:45.612Z,26.58
2018-07-24T18:32:14.733Z,26.48
2018-07-24T18:34:43.862Z,26.41
2018-07-24T18:37:13.225Z,26.36
2018-07-24T18:39:42.378Z,26.30
2018-07-24T18:42:11.453Z,26.23
2018-07-24T18:44:40.586Z,26.17
2018-07-24T18:47:09.731Z,26.07
2018-07-24T18:49:38.830Z,25.96
2018-07-24T18:52:08.029Z,25.88
2018-07-24T18:54:37.126Z,25.79
2018-07-24T18:57:06.578Z,25.70
2018-07-24T18:59:35.767Z,25.62
2018-07-24T19:02:05.082Z,25.50
2018-07-24T19:04:34.552Z,25.40
2018-07-24T19:07:04.448Z,25.32
2018-07-24T19:09:33.782Z,25.20
2018-07-24T19:12:02.977Z,25.11
2018-07-24T19:14:32.766Z,25.02
2018-07-24T19:17:01.977Z,24.95
2018-07-24T19:19:32.076Z,24.88
2018-07-24T19:22:03.365Z,24.82
2018-07-24T19:24:33.275Z,24.76
2018-07-24T19:27:03.602Z,24.68
2018-07-24T19:29:33.478Z,24.60
2018-07-24T19:32:02.820Z,24.51
2018-07-24T19:34:32.943Z,24.39
2018-07-24T19:37:02.884Z,24.31
2018-07-24T19:39:32.752Z,24.20
2018-07-24T19:42:02.678Z,24.11
2018-07-24T19:44:32.895Z,24.00
2018-07-24T19:47:02.816Z,23.91
2018-07-24T19:49:32.935Z,23.82
2018-07-24T19:52:03.191Z,23.73
2018-07-24T19:54:33.088Z,23.67
2018-07-24T19:57:02.832Z,23.59
2018-07-24T19:59:32.888Z,23.53
2018-07-24T20:02:03.261Z,23.48
2018-07-24T20:04:33.077Z,23.43
2018-07-24T20:07:02.671Z,23.36
2018-07-24T20:09:33.315Z,23.30
2018-07-24T20:12:02.881Z,23.22
2018-07-24T20:14:32.712Z,23.14
2018-07-24T20:17:02.722Z,23.10
2018-07-24T20:19:32.672Z,23.06
2018-07-24T20:22:02.565Z,23.00
2018-07-24T20:24:32.622Z,22.96
2018-07-24T20:27:02.908Z,22.92
2018-07-24T20:29:32.766Z,22.87
2018-07-24T20:32:02.995Z,22.83
2018-07-24T20:34:32.897Z,22.76
2018-07-24T20:37:02.816Z,22.70
2018-07-24T20:39:33.140Z,22.64
2018-07-24T20:42:03.008Z,22.56
2018-07-24T20:44:32.593Z,22.49
2018-07-24T20:47:02.617Z,22.42
2018-07-24T21:08:52.212Z,22.35
2018-07-24T21:11:21.486Z,21.86
2018-07-24T21:13:50.799Z,21.83
2018-07-24T21:16:20.084Z,21.80
2018-07-24T21:18:50.028Z,21.75
2018-07-24T21:21:19.068Z,21.75
2018-07-24T21:23:48.599Z,21.72
2018-07-24T21:26:18.108Z,21.69
2018-07-24T21:28:47.219Z,21.60
2018-07-24T21:31:16.693Z,21.49
2018-07-24T21:33:45.818Z,21.41
2018-07-24T21:36:15.238Z,21.28
2018-07-24T21:38:44.337Z,21.23
2018-07-24T21:41:13.442Z,21.22
2018-07-24T21:43:42.554Z,21.17
2018-07-24T21:46:11.623Z,21.15
2018-07-24T21:48:40.660Z,21.10
2018-07-24T21:51:09.875Z,21.06
2018-07-24T21:53:39.362Z,21.04
2018-07-24T21:56:08.903Z,21.00
2018-07-24T21:58:38.378Z,20.97
2018-07-24T22:01:11.462Z,20.92
2018-07-24T22:03:40.932Z,20.84
2018-07-24T22:06:10.203Z,20.80
2018-07-24T22:08:39.582Z,20.77
2018-07-24T22:11:08.782Z,20.70
2018-07-24T22:13:37.920Z,20.66
2018-07-24T22:16:07.408Z,20.63
2018-07-24T22:18:36.778Z,20.62
2018-07-24T22:21:05.920Z,20.63
2018-07-24T22:23:34.999Z,20.62
2018-07-24T22:26:04.131Z,20.61
2018-07-24T22:28:33.316Z,20.59
2018-07-24T22:31:03.586Z,20.59
2018-07-24T22:33:33.427Z,20.58
2018-07-24T22:36:03.336Z,20.54
2018-07-24T22:38:33.451Z,20.49
2018-07-24T22:41:03.298Z,20.48
2018-07-24T22:43:33.610Z,20.47
2018-07-24T22:46:03.517Z,20.45
2018-07-24T22:48:33.458Z,20.43
2018-07-24T22:51:03.791Z,20.39
2018-07-24T22:53:33.504Z,20.38
2018-07-24T22:56:03.700Z,20.36
2018-07-24T22:58:33.908Z,20.34
2018-07-24T23:01:03.427Z,20.30
2018-07-24T23:03:33.668Z,20.28
2018-07-24T23:06:03.805Z,20.26
2018-07-24T23:08:34.014Z,20.22
2018-07-24T23:11:03.507Z,20.21
2018-07-24T23:13:33.834Z,20.15
2018-07-24T23:16:03.770Z,20.09
2018-07-24T23:18:34.078Z,20.09
2018-07-24T23:21:03.636Z,20.04
2018-07-24T23:23:33.720Z,20.01
2018-07-24T23:26:03.628Z,19.98
2018-07-24T23:28:34.040Z,19.96
2018-07-24T23:31:03.679Z,19.98
2018-07-24T23:33:33.973Z,20.00
2018-07-24T23:36:03.897Z,20.03
2018-07-24T23:38:34.137Z,20.03
2018-07-24T23:41:03.801Z,20.02
2018-07-24T23:43:33.740Z,19.98
2018-07-24T23:46:04.135Z,19.93
2018-07-24T23:48:33.941Z,19.91
2018-07-24T23:51:03.889Z,19.84
2018-07-24T23:53:34.062Z,19.77
2018-07-24T23:56:03.987Z,19.73
2018-07-24T23:58:34.415Z,19.69
